Time;durP1;ratioP1;P1;durP2;ratioP2;P2;SDS_P1;SDS_P2;PMS_P1;PMS_P2;Temp;Humidity;BMP_temperature;BMP_pressure;BME280_temperature;BME280_humidity;BME280_pressure;Samples;Min_cycle;Max_cycle;Signal;HPM_P1;HPM_P2
2022/02/24 00:00:19;;;;;;;12.20;4.05;;;;;;;9.15;46.23;101671.94;4989220;28;98617;-71
2022/02/24 00:02:49;;;;;;;14.15;4.05;;;;;;;9.19;46.00;101671.00;4987957;28;98671;-70
2022/02/24 00:05:16;;;;;;;21.63;3.78;;;;;;;9.36;45.67;101665.47;4989187;28;96802;-71
2022/02/24 00:07:43;;;;;;;13.80;3.58;;;;;;;9.13;46.01;101666.69;4986022;28;99036;-71
2022/02/24 00:10:12;;;;;;;21.30;3.38;;;;;;;9.26;45.98;101663.84;4987797;28;98910;-72
2022/02/24 00:12:40;;;;;;;14.55;3.60;;;;;;;9.20;46.13;101668.34;4989335;28;97230;-71
2022/02/24 00:15:07;;;;;;;12.20;4.07;;;;;;;9.07;46.31;101658.88;4988525;28;98221;-69
2022/02/24 00:17:35;;;;;;;18.08;3.75;;;;;;;9.05;46.57;101657.16;4993555;28;98902;-71
2022/02/24 00:20:04;;;;;;;16.67;3.75;;;;;;;9.11;45.95;101659.72;4986410;28;99192;-70
2022/02/24 00:22:31;;;;;;;13.45;3.47;;;;;;;9.01;46.48;101658.09;4991357;28;96978;-70
2022/02/24 00:24:58;;;;;;;15.50;3.70;;;;;;;8.89;46.86;101667.03;4991044;28;98484;-70
2022/02/24 00:27:25;;;;;;;20.35;3.42;;;;;;;8.97;46.33;101661.66;4989998;28;99148;-70
2022/02/24 00:29:58;;;;;;;13.18;3.63;;;;;;;8.83;46.57;101659.22;4988696;28;99090;-71
2022/02/24 00:32:24;;;;;;;16.15;3.78;;;;;;;9.03;46.20;101651.03;4983868;28;96936;-70
2022/02/24 00:34:52;;;;;;;18.55;4.13;;;;;;;8.96;46.42;101655.53;4982812;28;97594;-70
2022/02/24 00:37:19;;;;;;;10.73;3.10;;;;;;;8.86;46.79;101653.91;4989022;28;99191;-70
2022/02/24 00:39:45;;;;;;;15.02;3.50;;;;;;;8.52;47.36;101653.50;4986905;28;98992;-70
2022/02/24 00:42:12;;;;;;;8.93;2.78;;;;;;;8.78;47.03;101653.16;4985541;28;97370;-71
2022/02/24 00:44:38;;;;;;;12.73;3.75;;;;;;;8.84;46.61;101646.94;4989363;28;97174;-69
2022/02/24 00:47:05;;;;;;;10.85;3.20;;;;;;;8.73;46.67;101655.84;4988269;28;100000;-72
2022/02/24 00:49:35;;;;;;;15.05;3.70;;;;;;;8.86;46.74;101656.53;4984914;28;98961;-70
2022/02/24 00:52:04;;;;;;;22.55;3.40;;;;;;;9.00;46.25;101654.56;4986593;28;97374;-71
2022/02/24 00:54:30;;;;;;;14.32;4.30;;;;;;;8.96;46.24;101649.38;4990666;28;97750;-69
2022/02/24 00:56:57;;;;;;;16.35;3.88;;;;;;;8.96;46.28;101650.25;4982656;28;97865;-70
2022/02/24 00:59:23;;;;;;;14.00;3.35;;;;;;;8.80;46.74;101643.44;4979672;28;98135;-70
2022/02/24 01:01:50;;;;;;;11.93;2.75;;;;;;;8.39;47.31;101636.97;4986844;28;96773;-70
2022/02/24 01:04:18;;;;;;;12.43;3.33;;;;;;;8.54;47.53;101633.25;4985995;28;97253;-70
2022/02/24 01:06:45;;;;;;;16.55;3.60;;;;;;;8.61;47.25;101628.78;4983852;28;99420;-70
2022/02/24 01:09:13;;;;;;;10.95;3.75;;;;;;;8.51;47.58;101630.69;4984263;28;98864;-71
2022/02/24 01:11:39;;;;;;;12.40;3.20;;;;;;;8.47;46.98;101623.69;4992456;28;97056;-72
2022/02/24 01:14:06;;;;;;;12.73;3.20;;;;;;;8.17;48.01;101619.66;4995256;28;96884;-70
2022/02/24 01:16:39;;;;;;;13.38;3.50;;;;;;;8.53;47.35;101609.59;4984384;28;100018;-69
2022/02/24 01:19:05;;;;;;;10.10;2.97;;;;;;;8.39;47.79;101609.78;4986095;28;99241;-70
2022/02/24 01:21:34;;;;;;;15.35;3.40;;;;;;;8.37;47.74;101596.63;4988488;28;98761;-70
2022/02/24 01:24:00;;;;;;;15.07;3.60;;;;;;;8.45;47.54;101593.88;4992146;28;98672;-71
2022/02/24 01:26:29;;;;;;;13.18;3.10;;;;;;;8.16;48.54;101585.44;4982663;28;98245;-70
2022/02/24 01:28:55;;;;;;;14.65;3.35;;;;;;;8.52;47.38;101592.03;4985905;28;99073;-70
2022/02/24 01:31:21;;;;;;;15.45;3.72;;;;;;;8.40;47.65;101585.19;4990318;28;96816;-71
2022/02/24 01:33:48;;;;;;;15.32;3.67;;;;;;;8.25;48.00;101575.69;4987528;28;97136;-70
2022/02/24 01:36:14;;;;;;;14.50;4.28;;;;;;;8.46;47.54;101568.44;4987509;28;99303;-71
2022/02/24 01:38:41;;;;;;;13.88;3.40;;;;;;;8.21;48.01;101579.22;4994355;28;98308;-69
2022/02/24 01:41:07;;;;;;;12.52;3.50;;;;;;;8.41;47.91;101573.72;4989050;28;97108;-71
2022/02/24 01:43:35;;;;;;;12.32;3.85;;;;;;;8.27;47.72;101571.25;4988678;28;99044;-72
2022/02/24 01:46:04;;;;;;;17.25;3.72;;;;;;;8.37;47.89;101579.94;4989640;28;99003;-71
2022/02/24 01:48:34;;;;;;;15.98;3.55;;;;;;;8.09;48.78;101576.75;4991534;28;98109;-72
2022/02/24 01:51:02;;;;;;;13.20;3.40;;;;;;;8.26;48.40;101574.78;4986640;28;98657;-71
2022/02/24 01:53:29;;;;;;;14.93;3.95;;;;;;;8.43;47.53;101573.72;4990945;28;97322;-70
2022/02/24 01:55:55;;;;;;;10.90;3.22;;;;;;;8.23;48.25;101566.91;4990366;28;99003;-71
2022/02/24 01:58:22;;;;;;;9.32;3.28;;;;;;;8.20;48.43;101566.97;4990649;28;98933;-71
2022/02/24 02:00:50;;;;;;;14.32;3.75;;;;;;;8.13;48.44;101562.69;4989439;28;96852;-70
2022/02/24 02:03:17;;;;;;;19.35;4.25;;;;;;;8.23;48.51;101561.66;4988042;28;98897;-71
2022/02/24 02:05:43;;;;;;;16.45;3.40;;;;;;;7.97;48.82;101553.22;4990500;28;99259;-69
2022/02/24 02:08:09;;;;;;;12.32;3.25;;;;;;;8.02;48.78;101547.00;4992694;28;99127;-70
2022/02/24 02:10:36;;;;;;;22.30;4.00;;;;;;;8.01;48.82;101541.75;4988283;28;99113;-70
2022/02/24 02:13:03;;;;;;;13.43;3.63;;;;;;;8.02;49.06;101530.34;5001487;22;98191;-75
2022/02/24 02:15:29;;;;;;;11.55;3.20;;;;;;;8.02;48.70;101525.06;4956966;28;99495;-73
2022/02/24 02:17:57;;;;;;;11.40;3.42;;;;;;;7.94;49.01;101516.41;4957430;28;99198;-73
2022/02/24 02:20:24;;;;;;;12.05;3.45;;;;;;;7.52;49.82;101516.03;4954914;28;97790;-74
2022/02/24 02:22:53;;;;;;;15.00;3.80;;;;;;;7.72;49.95;101510.53;4961222;28;98709;-73
2022/02/24 02:25:20;;;;;;;12.85;3.35;;;;;;;7.79;49.85;101506.06;4955317;28;99180;-73
2022/02/24 02:27:49;;;;;;;14.63;3.50;;;;;;;7.79;49.58;101506.06;4957625;28;98902;-73
2022/02/24 02:30:16;;;;;;;16.15;3.58;;;;;;;7.71;50.31;101507.91;4956118;28;96896;-73
2022/02/24 02:32:42;;;;;;;11.90;3.10;;;;;;;7.56;50.27;101503.69;4957815;28;98017;-73
2022/02/24 02:35:09;;;;;;;16.92;3.25;;;;;;;7.66;50.16;101494.81;4953905;28;99147;-73
2022/02/24 02:37:35;;;;;;;10.55;3.22;;;;;;;7.79;49.57;101493.78;4957751;28;99066;-73
2022/02/24 02:40:03;;;;;;;14.57;3.42;;;;;;;7.69;49.88;101497.41;4955642;28;97714;-73
2022/02/24 02:42:30;;;;;;;14.13;3.72;;;;;;;7.80;50.05;101500.81;4959818;28;96955;-73
2022/02/24 02:44:56;;;;;;;11.85;3.05;;;;;;;7.72;49.88;101491.25;4954845;28;99815;-73
2022/02/24 02:47:22;;;;;;;15.15;3.20;;;;;;;7.55;50.41;101488.78;4958209;28;98127;-72
2022/02/24 02:49:49;;;;;;;12.40;3.03;;;;;;;7.44;50.90;101481.03;4951757;28;98911;-74
2022/02/24 02:52:16;;;;;;;13.05;3.28;;;;;;;7.81;50.14;101475.38;4961176;28;98757;-74
2022/02/24 02:54:42;;;;;;;11.80;2.97;;;;;;;7.34;50.69;101476.78;4953373;28;99057;-74
2022/02/24 02:57:10;;;;;;;12.38;3.22;;;;;;;7.35;51.02;101472.41;4956555;28;99112;-74
2022/02/24 02:59:36;;;;;;;20.20;3.50;;;;;;;7.57;50.69;101456.34;4958716;28;96755;-75
2022/02/24 03:02:03;;;;;;;16.58;3.03;;;;;;;7.70;50.28;101457.06;4957479;28;96881;-74
2022/02/24 03:04:29;;;;;;;13.43;3.33;;;;;;;7.15;51.85;101452.41;4953113;28;99373;-74
2022/02/24 03:06:56;;;;;;;10.05;3.03;;;;;;;7.25;51.33;101445.31;4954647;28;101161;-74
2022/02/24 03:09:22;;;;;;;11.32;2.60;;;;;;;7.63;50.61;101442.25;4959319;28;96901;-74
2022/02/24 03:11:48;;;;;;;12.90;3.13;;;;;;;7.71;50.38;101439.53;4959476;28;96943;-75
2022/02/24 03:14:16;;;;;;;10.70;2.45;;;;;;;7.44;50.69;101432.84;4959655;28;99071;-75
2022/02/24 03:16:42;;;;;;;15.02;3.55;;;;;;;7.58;50.67;101429.16;4955506;28;99034;-75
2022/02/24 03:19:11;;;;;;;17.05;3.20;;;;;;;7.42;50.71;101417.06;4953965;28;99425;-75
2022/02/24 03:21:37;;;;;;;10.27;2.78;;;;;;;7.59;50.58;101416.88;4956060;28;97140;-75
2022/02/24 03:24:04;;;;;;;7.93;2.50;;;;;;;7.56;50.46;101407.25;4956344;28;98951;-74
2022/02/24 03:26:31;;;;;;;11.35;4.30;;;;;;;7.56;50.43;101422.16;4959993;28;99225;-75
2022/02/24 03:28:57;;;;;;;12.00;2.65;;;;;;;7.40;50.90;101418.00;4959753;28;96857;-75
2022/02/24 03:31:25;;;;;;;12.75;3.03;;;;;;;7.56;50.31;101409.88;4953434;28;96897;-74
2022/02/24 03:33:51;;;;;;;14.43;2.78;;;;;;;7.81;49.87;101420.09;4957416;28;99388;-74
2022/02/24 03:36:18;;;;;;;10.27;3.55;;;;;;;7.73;49.98;101416.69;4951364;28;99014;-74
2022/02/24 03:38:44;;;;;;;9.80;2.97;;;;;;;7.60;50.18;101416.00;4959359;28;99353;-74
2022/02/24 03:41:10;;;;;;;12.73;3.25;;;;;;;7.64;49.62;101404.53;4952970;28;97613;-73
2022/02/24 03:43:37;;;;;;;11.00;3.05;;;;;;;7.57;50.22;101408.13;4962767;28;99050;-74
2022/02/24 03:46:03;;;;;;;14.65;3.42;;;;;;;7.63;50.42;101405.41;4954281;28;99197;-74
2022/02/24 03:48:31;;;;;;;14.65;2.65;;;;;;;7.48;50.75;101389.84;4953648;28;97227;-73
2022/02/24 03:50:57;;;;;;;15.23;2.75;;;;;;;7.58;50.34;101388.84;4955121;28;99110;-74
2022/02/24 03:53:23;;;;;;;11.60;2.67;;;;;;;7.69;49.80;101393.94;4955557;28;99398;-74
2022/02/24 03:55:50;;;;;;;12.70;2.60;;;;;;;7.20;51.06;101386.69;4953046;28;99315;-74
2022/02/24 03:58:16;;;;;;;15.25;3.10;;;;;;;7.41;50.79;101386.44;4957530;28;96903;-75
2022/02/24 04:00:43;;;;;;;17.40;4.00;;;;;;;7.60;50.15;101381.81;4955542;28;96785;-74
2022/02/24 04:03:09;;;;;;;14.88;2.58;;;;;;;7.60;50.24;101373.91;4955070;28;98862;-75
2022/02/24 04:05:37;;;;;;;9.90;3.08;;;;;;;7.51;50.35;101371.38;4954194;28;98885;-74
2022/02/24 04:08:04;;;;;;;11.73;2.20;;;;;;;7.36;50.78;101377.72;4959625;28;97519;-75
2022/02/24 04:10:30;;;;;;;9.57;2.80;;;;;;;7.03;51.31;101367.59;4953981;28;96860;-74
2022/02/24 04:12:56;;;;;;;12.23;2.53;;;;;;;6.99;51.38;101366.75;4957298;28;99160;-74
2022/02/24 04:15:23;;;;;;;12.60;4.25;;;;;;;7.00;51.83;101363.25;4950310;28;101501;-74
2022/02/24 04:17:49;;;;;;;10.48;2.83;;;;;;;7.26;51.21;101362.06;4959557;28;97566;-75
2022/02/24 04:20:15;;;;;;;16.20;3.47;;;;;;;7.29;50.75;101360.25;4958316;28;97308;-74
2022/02/24 04:22:43;;;;;;;9.98;2.35;;;;;;;7.02;51.42;101358.00;4951944;28;98248;-74
2022/02/24 04:25:09;;;;;;;11.07;2.70;;;;;;;7.19;50.75;101351.63;4957366;28;99136;-74
2022/02/24 04:27:36;;;;;;;14.80;3.20;;;;;;;7.40;50.33;101358.38;4954411;28;96882;-74
2022/02/24 04:30:02;;;;;;;10.95;3.35;;;;;;;7.35;50.32;101348.81;4952043;28;96743;-74
2022/02/24 04:32:28;;;;;;;9.38;2.65;;;;;;;7.32;50.18;101347.09;4955924;28;99554;-74
2022/02/24 04:34:55;;;;;;;18.73;3.10;;;;;;;7.08;50.73;101350.03;4952729;28;100737;-74
2022/02/24 04:37:21;;;;;;;11.13;2.33;;;;;;;6.95;51.22;101338.78;4951243;28;98854;-74
2022/02/24 04:39:49;;;;;;;7.65;2.50;;;;;;;7.29;50.31;101339.22;4952826;28;96762;-76
2022/02/24 04:42:15;;;;;;;10.88;2.72;;;;;;;6.84;51.41;101340.66;4951494;28;98883;-74
2022/02/24 04:44:42;;;;;;;7.95;2.55;;;;;;;7.02;51.16;101342.22;4955618;28;98995;-74
2022/02/24 04:47:08;;;;;;;8.07;2.25;;;;;;;6.84;51.30;101330.13;4952901;28;98862;-74
2022/02/24 04:49:34;;;;;;;7.03;2.28;;;;;;;6.99;50.90;101334.34;4959759;28;99057;-75
2022/02/24 04:52:01;;;;;;;12.50;2.70;;;;;;;7.04;50.53;101330.78;4951112;28;99320;-74
2022/02/24 04:54:27;;;;;;;13.23;2.53;;;;;;;7.20;50.23;101320.97;4954908;28;99272;-74
2022/02/24 04:56:55;;;;;;;11.10;2.40;;;;;;;7.34;49.96;101311.16;4951263;28;97573;-74
2022/02/24 04:59:21;;;;;;;9.70;2.53;;;;;;;6.89;50.66;101306.47;4953259;28;97050;-75
2022/02/24 05:01:47;;;;;;;12.95;2.65;;;;;;;6.91;50.68;101317.81;4950010;28;97903;-73
2022/02/24 05:04:15;;;;;;;10.50;2.63;;;;;;;6.84;50.59;101311.75;4960183;28;99361;-75
2022/02/24 05:06:41;;;;;;;11.13;3.63;;;;;;;6.79;50.62;101303.94;4952184;28;96776;-74
2022/02/24 05:09:07;;;;;;;10.55;2.35;;;;;;;7.10;50.20;101300.94;4955539;28;98956;-74
2022/02/24 05:11:34;;;;;;;11.10;2.60;;;;;;;6.92;50.66;101303.78;4954669;28;99379;-74
2022/02/24 05:14:01;;;;;;;12.07;2.47;;;;;;;7.29;49.76;101298.94;4957249;28;99273;-75
2022/02/24 05:16:29;;;;;;;10.75;2.80;;;;;;;7.42;49.39;101295.25;4953272;28;96890;-76
2022/02/24 05:18:55;;;;;;;9.25;2.53;;;;;;;7.44;49.03;101289.09;4953543;28;96923;-74
2022/02/24 05:21:22;;;;;;;12.23;2.65;;;;;;;7.17;49.49;101300.84;4955220;28;99496;-74
2022/02/24 05:23:48;;;;;;;7.07;2.08;;;;;;;7.06;50.37;101307.13;4962595;28;98933;-74
2022/02/24 05:26:14;;;;;;;8.70;2.42;;;;;;;7.17;49.54;101292.09;4950015;28;97747;-75
2022/02/24 05:28:40;;;;;;;11.52;2.53;;;;;;;7.15;49.79;101292.09;4963202;28;97235;-74
2022/02/24 05:31:08;;;;;;;10.05;2.55;;;;;;;7.15;49.66;101294.72;4955621;28;99269;-74
2022/02/24 05:33:35;;;;;;;9.80;3.05;;;;;;;7.34;49.43;101290.13;4953544;28;99070;-76
2022/02/24 05:36:02;;;;;;;10.38;2.80;;;;;;;6.90;50.09;101287.16;4959839;28;98725;-75
2022/02/24 05:38:28;;;;;;;11.45;2.72;;;;;;;6.76;50.61;101282.94;4956481;28;96734;-74
2022/02/24 05:40:54;;;;;;;11.00;2.92;;;;;;;7.11;49.60;101277.25;4958286;28;99425;-73
2022/02/24 05:43:22;;;;;;;8.48;2.50;;;;;;;7.25;49.37;101276.22;4963746;28;99323;-74
2022/02/24 05:45:49;;;;;;;6.22;2.80;;;;;;;7.37;49.06;101270.78;4968619;28;97191;-73
2022/02/24 05:48:16;;;;;;;14.35;3.13;;;;;;;7.29;49.19;101270.00;4972444;28;96939;-73
2022/02/24 05:50:43;;;;;;;9.82;2.88;;;;;;;7.61;48.96;101263.41;4964387;28;98989;-73
2022/02/24 05:53:09;;;;;;;11.25;2.90;;;;;;;7.03;49.82;101260.72;4963636;28;97785;-74
2022/02/24 05:55:36;;;;;;;8.60;2.55;;;;;;;7.34;49.26;101261.19;4957023;28;96755;-74
2022/02/24 05:58:04;;;;;;;14.40;2.63;;;;;;;7.44;49.34;101262.78;4961422;28;96979;-74
2022/02/24 06:00:31;;;;;;;8.45;2.85;;;;;;;7.38;49.03;101267.25;4955595;28;99451;-74
2022/02/24 06:02:57;;;;;;;15.75;4.03;;;;;;;7.73;48.54;101264.13;4964522;28;97870;-75
2022/02/24 06:05:25;;;;;;;11.57;3.63;;;;;;;7.68;48.38;101261.53;4960787;28;96994;-75
2022/02/24 06:07:51;;;;;;;12.73;2.80;;;;;;;7.70;48.56;101265.03;4962010;28;97048;-74
2022/02/24 06:10:18;;;;;;;11.75;3.33;;;;;;;7.62;48.48;101261.63;4957125;28;99524;-74
2022/02/24 06:12:44;;;;;;;11.65;2.55;;;;;;;7.29;49.24;101254.25;4963625;28;98998;-74
2022/02/24 06:15:12;;;;;;;12.90;2.95;;;;;;;7.41;49.24;101249.72;4964189;28;96795;-74
2022/02/24 06:17:38;;;;;;;7.82;2.42;;;;;;;7.50;48.63;101251.31;4965810;28;97192;-75
2022/02/24 06:20:06;;;;;;;13.00;2.55;;;;;;;7.40;49.20;101254.97;4962442;28;99512;-76
2022/02/24 06:22:35;;;;;;;14.23;2.60;;;;;;;7.55;48.57;101245.09;4950657;28;97536;-76
2022/02/24 06:25:01;;;;;;;10.57;2.90;;;;;;;7.41;48.51;101248.84;4958141;28;97856;-75
2022/02/24 06:27:28;;;;;;;6.55;2.45;;;;;;;7.37;48.96;101242.72;4954739;28;97160;-74
2022/02/24 06:29:54;;;;;;;12.10;2.80;;;;;;;7.61;48.56;101244.16;4952807;28;98248;-77
2022/02/24 06:32:21;;;;;;;11.23;3.28;;;;;;;7.61;48.78;101238.88;4956136;28;98942;-75
2022/02/24 06:34:48;;;;;;;10.68;3.75;;;;;;;7.63;48.81;101236.22;4954205;28;96821;-74
2022/02/24 06:37:14;;;;;;;8.60;2.20;;;;;;;7.51;48.59;101227.63;4957822;28;98556;-73
2022/02/24 06:39:42;;;;;;;11.57;2.78;;;;;;;7.94;48.14;101229.59;4961598;28;97800;-74
2022/02/24 06:42:09;;;;;;;9.60;2.72;;;;;;;8.00;47.74;101218.94;4957261;28;99292;-75
2022/02/24 06:44:35;;;;;;;9.77;2.78;;;;;;;7.69;48.33;101225.59;4958949;28;97787;-74
2022/02/24 06:47:02;;;;;;;12.20;2.75;;;;;;;7.63;48.46;101228.31;4952322;28;96767;-75
2022/02/24 06:49:28;;;;;;;9.65;2.60;;;;;;;7.90;47.92;101217.34;4954096;28;99317;-75
2022/02/24 06:51:57;;;;;;;12.48;2.33;;;;;;;8.08;47.83;101209.13;4950457;28;99448;-75
2022/02/24 06:54:24;;;;;;;10.35;2.65;;;;;;;7.89;48.11;101199.81;4958199;28;99047;-76
2022/02/24 06:56:51;;;;;;;8.40;2.40;;;;;;;7.96;48.00;101204.09;4957123;28;97200;-75
2022/02/24 06:59:18;;;;;;;11.90;3.20;;;;;;;7.88;48.00;101191.06;4951961;28;99157;-75
2022/02/24 07:01:44;;;;;;;11.18;2.70;;;;;;;7.90;48.16;101191.03;4950417;28;97982;-73
2022/02/24 07:04:11;;;;;;;9.55;2.80;;;;;;;7.88;48.26;101190.19;4951217;28;96866;-74
2022/02/24 07:06:37;;;;;;;12.20;2.35;;;;;;;7.73;48.65;101193.09;4956365;28;98646;-76
2022/02/24 07:09:03;;;;;;;13.73;2.35;;;;;;;7.84;48.72;101192.00;4948785;28;99195;-76
2022/02/24 07:11:30;;;;;;;10.77;3.03;;;;;;;8.17;47.48;101192.31;4948057;28;99094;-74
2022/02/24 07:13:58;;;;;;;17.13;3.00;;;;;;;8.31;47.48;101188.56;4950559;28;96816;-76
2022/02/24 07:16:24;;;;;;;7.05;2.45;;;;;;;8.33;47.17;101186.78;4952411;28;97204;-76
2022/02/24 07:18:50;;;;;;;11.50;3.17;;;;;;;8.46;46.90;101179.50;4952926;28;98894;-76
2022/02/24 07:21:17;;;;;;;10.70;2.42;;;;;;;8.27;47.21;101178.94;4953034;28;99151;-74
2022/02/24 07:23:43;;;;;;;10.70;2.83;;;;;;;8.65;46.46;101182.63;4953593;28;98777;-74
2022/02/24 07:26:10;;;;;;;14.85;2.83;;;;;;;8.50;46.62;101175.91;4948980;28;97266;-75
2022/02/24 07:28:37;;;;;;;10.93;2.45;;;;;;;8.50;47.04;101175.03;4952140;28;99356;-74
2022/02/24 07:31:06;;;;;;;12.18;2.53;;;;;;;8.59;46.64;101180.13;4949438;28;99510;-76
2022/02/24 07:33:32;;;;;;;12.98;3.08;;;;;;;8.56;46.80;101167.00;4952165;28;97404;-78
2022/02/24 07:35:58;;;;;;;11.63;3.63;;;;;;;8.82;46.59;101171.72;4949724;28;98073;-76
2022/02/24 07:38:25;;;;;;;11.50;2.15;;;;;;;8.40;46.95;101164.66;4956606;28;99254;-76
2022/02/24 07:40:54;;;;;;;15.40;2.67;;;;;;;8.36;47.08;101165.63;4963658;28;98942;-82
2022/02/24 07:43:21;;;;;;;13.23;2.90;;;;;;;8.44;47.14;101176.03;4963395;28;97390;-76
2022/02/24 07:45:47;;;;;;;8.93;2.05;;;;;;;8.71;47.20;101170.19;4957481;28;97526;-80
2022/02/24 07:48:15;;;;;;;9.43;2.55;;;;;;;8.72;46.81;101168.44;4947896;28;102165;-77
2022/02/24 07:50:42;;;;;;;27.40;3.47;;;;;;;9.08;45.91;101170.25;4948352;28;101441;-77
2022/02/24 07:53:08;;;;;;;13.27;2.72;;;;;;;9.20;45.36;101159.41;4954387;28;97159;-77
2022/02/24 07:55:34;;;;;;;3.95;1.85;;;;;;;9.24;44.89;101148.81;4954205;28;97000;-76
2022/02/24 07:58:01;;;;;;;8.07;2.83;;;;;;;8.89;45.91;101149.59;4944219;28;99385;-79
2022/02/24 08:00:27;;;;;;;8.63;2.13;;;;;;;9.26;45.35;101141.69;4951436;28;98925;-77
2022/02/24 08:02:55;;;;;;;25.80;3.28;;;;;;;8.84;46.24;101127.75;4952208;28;97554;-78
2022/02/24 08:05:23;;;;;;;7.22;2.28;;;;;;;9.20;45.62;101133.03;4948893;28;97013;-75
2022/02/24 08:07:49;;;;;;;6.75;2.13;;;;;;;9.52;45.00;101113.78;4951908;28;101558;-76
2022/02/24 08:10:16;;;;;;;11.07;2.10;;;;;;;9.52;44.72;101119.06;4954081;28;98926;-76
2022/02/24 08:12:43;;;;;;;10.23;2.30;;;;;;;9.53;45.03;101106.75;4953471;28;99140;-75
2022/02/24 08:15:12;;;;;;;8.80;2.80;;;;;;;9.70;44.60;101111.59;4996634;22;97197;-71
2022/02/24 08:17:39;;;;;;;10.23;2.90;;;;;;;9.86;44.17;101097.94;4989884;28;98193;-70
2022/02/24 08:20:07;;;;;;;12.15;2.50;;;;;;;9.89;44.13;101104.94;4999953;28;99710;-71
2022/02/24 08:22:36;;;;;;;10.25;2.30;;;;;;;9.72;44.39;101097.44;4996459;28;97049;-71
2022/02/24 08:25:04;;;;;;;15.00;2.20;;;;;;;9.44;44.88;101083.25;4977817;28;97183;-73
2022/02/24 08:27:30;;;;;;;6.38;2.17;;;;;;;10.18;43.93;101083.88;4974677;28;99019;-72
2022/02/24 08:30:00;;;;;;;7.88;2.08;;;;;;;10.03;43.78;101073.75;4975479;28;101052;-74
2022/02/24 08:32:27;;;;;;;18.80;2.72;;;;;;;10.24;43.36;101072.31;4979896;28;97669;-74
2022/02/24 08:34:55;;;;;;;13.80;3.00;;;;;;;10.41;43.06;101077.09;4972124;28;100064;-70
2022/02/24 08:37:21;;;;;;;8.15;2.47;;;;;;;10.05;43.78;101068.41;4976707;28;100264;-70
2022/02/24 08:39:49;;;;;;;10.32;2.47;;;;;;;10.18;43.28;101059.25;4983925;28;97614;-71
2022/02/24 08:42:15;;;;;;;9.65;2.10;;;;;;;10.02;44.11;101056.16;4975431;28;99147;-72
2022/02/24 08:44:43;;;;;;;8.63;2.40;;;;;;;10.05;44.20;101055.19;4975454;28;98357;-71
2022/02/24 08:47:10;;;;;;;8.68;2.85;;;;;;;9.82;44.35;101058.50;4984098;28;99377;-71
2022/02/24 08:49:36;;;;;;;14.07;2.42;;;;;;;9.89;44.55;101053.00;4980220;28;99741;-72
2022/02/24 08:52:03;;;;;;;6.75;2.45;;;;;;;9.73;44.86;101040.25;4978786;28;97697;-70
2022/02/24 08:54:31;;;;;;;13.80;2.95;;;;;;;9.95;44.44;101033.47;4979792;28;97150;-70
2022/02/24 08:56:59;;;;;;;8.85;2.47;;;;;;;10.26;44.32;101038.78;4976780;28;99397;-70
2022/02/24 08:59:25;;;;;;;3.75;1.73;;;;;;;10.24;43.52;101027.41;4980757;28;99565;-69
2022/02/24 09:01:54;;;;;;;9.98;2.72;;;;;;;10.92;42.86;101024.38;4974958;28;97111;-70
2022/02/24 09:04:21;;;;;;;10.13;2.55;;;;;;;10.88;42.64;101023.63;4981485;28;97273;-71
2022/02/24 09:06:47;;;;;;;23.85;3.45;;;;;;;10.77;43.03;101010.75;4982286;28;100016;-71
2022/02/24 09:09:14;;;;;;;8.15;2.17;;;;;;;11.19;42.18;101012.91;4981615;28;99452;-72
2022/02/24 09:11:41;;;;;;;14.60;3.13;;;;;;;11.02;42.08;101004.69;4977679;28;97390;-71
2022/02/24 09:14:18;;;;;;;13.35;2.53;;;;;;;10.69;43.36;101007.50;4984214;28;97790;-72
2022/02/24 09:16:45;;;;;;;9.73;2.10;;;;;;;10.98;42.74;100997.75;4983064;28;98920;-71
2022/02/24 09:19:12;;;;;;;7.10;2.40;;;;;;;10.86;43.10;101003.44;4983855;28;98722;-74
2022/02/24 09:21:40;;;;;;;5.63;2.10;;;;;;;11.38;42.31;100995.47;4989943;28;97485;-71
2022/02/24 09:24:07;;;;;;;12.48;3.10;;;;;;;11.27;42.54;100989.69;4980392;28;96992;-70
2022/02/24 09:26:34;;;;;;;10.25;2.55;;;;;;;11.01;42.89;100989.72;4980338;28;98930;-70
2022/02/24 09:29:00;;;;;;;11.27;2.25;;;;;;;11.16;43.03;100981.25;4989089;28;96842;-69
2022/02/24 09:31:28;;;;;;;8.88;2.42;;;;;;;11.57;42.15;100983.31;4980169;28;96905;-70
2022/02/24 09:33:55;;;;;;;8.00;1.92;;;;;;;11.53;42.24;100979.06;4983883;28;96949;-70
2022/02/24 09:36:21;;;;;;;12.95;2.55;;;;;;;11.51;42.19;100972.97;4985115;28;99685;-71
2022/02/24 09:38:47;;;;;;;5.90;2.03;;;;;;;11.16;42.93;100968.03;4985228;28;97962;-69
2022/02/24 09:41:14;;;;;;;12.05;2.00;;;;;;;11.23;42.61;100968.69;4987156;28;96787;-69
2022/02/24 09:43:41;;;;;;;15.82;2.83;;;;;;;11.88;41.93;100969.84;4986043;28;96940;-69
2022/02/24 09:46:10;;;;;;;11.05;2.33;;;;;;;11.78;41.58;100957.91;4986344;28;99458;-69
2022/02/24 09:48:41;;;;;;;60.60;6.32;;;;;;;12.04;41.40;100948.09;4986489;28;98859;-70
2022/02/24 09:51:10;;;;;;;14.90;2.30;;;;;;;11.82;41.80;100945.38;4986204;28;97390;-69
2022/02/24 09:53:37;;;;;;;10.23;2.25;;;;;;;11.83;41.91;100936.53;4986772;28;97235;-70
2022/02/24 09:56:05;;;;;;;8.40;2.10;;;;;;;11.51;42.32;100940.34;4984326;28;99060;-69
2022/02/24 09:58:33;;;;;;;11.20;2.17;;;;;;;11.53;42.71;100933.22;4983756;28;99057;-70
2022/02/24 10:01:02;;;;;;;43.78;5.93;;;;;;;11.93;41.87;100937.94;4986723;28;96763;-70
2022/02/24 10:03:32;;;;;;;12.60;2.88;;;;;;;12.13;41.24;100929.22;4987226;28;97070;-71
2022/02/24 10:06:01;;;;;;;6.30;1.65;;;;;;;12.37;41.05;100923.81;4987036;28;98969;-71
2022/02/24 10:08:29;;;;;;;12.73;3.00;;;;;;;12.35;41.07;100909.75;4990076;28;98507;-70
2022/02/24 10:10:57;;;;;;;9.68;2.38;;;;;;;12.64;40.58;100915.66;4985300;28;96804;-70
2022/02/24 10:13:25;;;;;;;10.73;2.40;;;;;;;12.68;40.58;100909.28;4987250;28;99070;-70
2022/02/24 10:15:57;;;;;;;18.80;4.10;;;;;;;12.95;40.04;100902.84;4987447;28;99469;-70
2022/02/24 10:18:28;;;;;;;7.93;2.53;;;;;;;13.05;39.40;100901.53;4992503;28;98894;-69
2022/02/24 10:20:57;;;;;;;14.65;2.78;;;;;;;13.14;39.68;100889.66;4982247;28;96821;-70
2022/02/24 10:23:32;;;;;;;7.80;2.33;;;;;;;12.30;41.03;100889.66;4985818;28;97110;-69
2022/02/24 10:26:01;;;;;;;13.80;3.47;;;;;;;12.50;41.11;100886.19;4986668;28;99507;-70
2022/02/24 10:28:31;;;;;;;7.60;2.33;;;;;;;11.99;42.18;100887.38;4978964;28;97737;-70
2022/02/24 10:30:58;;;;;;;13.13;2.60;;;;;;;12.27;41.68;100881.84;4983157;28;98012;-70
2022/02/24 10:33:26;;;;;;;9.98;2.60;;;;;;;12.61;41.10;100882.16;4986021;28;96912;-70
2022/02/24 10:35:52;;;;;;;9.27;2.35;;;;;;;12.45;41.33;100874.94;4985834;28;99108;-70
2022/02/24 10:38:19;;;;;;;6.75;2.35;;;;;;;12.35;41.71;100871.78;4987565;28;99051;-70
2022/02/24 10:40:48;;;;;;;8.38;2.72;;;;;;;12.60;41.46;100869.84;4987133;28;96988;-71
2022/02/24 10:43:17;;;;;;;7.22;2.30;;;;;;;12.48;41.40;100856.25;4989221;28;97605;-71
2022/02/24 10:45:45;;;;;;;10.35;2.20;;;;;;;12.33;41.91;100848.03;4982860;28;99531;-70
2022/02/24 10:48:13;;;;;;;6.18;2.10;;;;;;;12.84;40.64;100844.09;4993453;28;99307;-71
2022/02/24 10:50:53;;;;;;;9.85;3.20;;;;;;;13.26;40.27;100841.34;4992032;28;96861;-69
2022/02/24 10:53:21;;;;;;;10.32;2.95;;;;;;;13.33;39.97;100836.63;4989108;28;96795;-69
2022/02/24 10:56:01;;;;;;;7.55;2.55;;;;;;;13.55;39.61;100838.25;4986787;28;99188;-72
2022/02/24 10:58:29;;;;;;;11.63;3.38;;;;;;;13.44;39.85;100831.72;4984247;28;99611;-73
2022/02/24 11:01:08;;;;;;;10.35;3.25;;;;;;;13.46;39.96;100829.84;4984588;28;96799;-72
2022/02/24 11:03:35;;;;;;;10.80;2.70;;;;;;;13.59;39.60;100833.63;4986489;28;97456;-71
2022/02/24 11:06:04;;;;;;;12.30;2.63;;;;;;;13.30;40.14;100826.16;4984401;28;99804;-72
2022/02/24 11:08:31;;;;;;;12.05;3.35;;;;;;;13.43;40.34;100832.66;4991881;28;99488;-71
2022/02/24 11:10:59;;;;;;;10.73;2.50;;;;;;;13.29;40.18;100821.78;4977799;28;98062;-70
2022/02/24 11:13:27;;;;;;;9.18;2.70;;;;;;;12.68;41.50;100813.84;4983140;28;97333;-71
2022/02/24 11:15:55;;;;;;;9.07;2.30;;;;;;;13.10;41.10;100819.94;4982257;28;99303;-69
2022/02/24 11:18:22;;;;;;;18.58;2.97;;;;;;;13.24;40.78;100815.84;4985602;28;99269;-71
2022/02/24 11:20:49;;;;;;;6.43;2.22;;;;;;;13.26;40.72;100808.69;4984627;28;98440;-71
2022/02/24 11:23:15;;;;;;;8.68;2.55;;;;;;;12.69;41.82;100800.53;4987512;28;97190;-70